createdAt,value
2022-12-19T00:04:09.955Z,84.54
2022-12-19T00:09:12.970Z,84.04
2022-12-19T00:14:15.089Z,83.74
2022-12-19T00:19:17.085Z,84.05
2022-12-19T00:24:21.482Z,84.05
2022-12-19T00:29:23.945Z,83.90
2022-12-19T00:34:26.056Z,84.08
2022-12-19T00:39:28.066Z,84.33
2022-12-19T00:44:30.073Z,85.05
2022-12-19T00:49:32.095Z,85.82
2022-12-19T00:54:35.640Z,86.43
2022-12-19T00:59:37.792Z,86.99
2022-12-19T01:04:41.690Z,88.04
2022-12-19T01:09:44.202Z,88.26
2022-12-19T01:14:48.163Z,88.54
2022-12-19T01:19:50.137Z,88.54
2022-12-19T01:24:52.162Z,88.69
2022-12-19T01:29:54.235Z,88.53
2022-12-19T01:34:56.517Z,88.32
2022-12-19T01:39:58.510Z,88.07
2022-12-19T01:45:13.400Z,87.88
2022-12-19T01:50:20.959Z,87.50
2022-12-19T01:55:23.433Z,87.90
2022-12-19T02:00:25.507Z,88.36
2022-12-19T02:05:27.723Z,88.53
2022-12-19T02:10:29.835Z,88.60
2022-12-19T02:15:41.536Z,88.47
2022-12-19T02:20:52.001Z,88.25
2022-12-19T02:26:12.129Z,87.54
2022-12-19T02:31:33.398Z,87.30
2022-12-19T02:36:42.647Z,87.25
2022-12-19T02:41:55.108Z,87.37
2022-12-19T02:47:00.712Z,87.39
2022-12-19T02:52:33.576Z,87.79
2022-12-19T02:58:05.958Z,88.10
2022-12-19T03:03:37.247Z,88.46
2022-12-19T03:09:08.519Z,88.83
2022-12-19T03:14:15.991Z,88.73
2022-12-19T03:19:18.176Z,88.57
2022-12-19T03:24:20.324Z,88.52
2022-12-19T03:29:49.863Z,88.72
2022-12-19T03:35:10.907Z,88.27
2022-12-19T03:40:18.045Z,88.41
2022-12-19T03:45:40.447Z,88.53
2022-12-19T03:50:59.383Z,88.61
2022-12-19T03:56:11.270Z,88.33
2022-12-19T04:01:13.944Z,88.32
2022-12-19T04:06:17.029Z,88.71
2022-12-19T04:11:20.618Z,89.01
2022-12-19T04:16:22.592Z,88.68
2022-12-19T04:21:32.069Z,88.84
2022-12-19T04:26:36.610Z,88.77
2022-12-19T04:31:39.348Z,88.88
2022-12-19T04:36:41.414Z,88.75
2022-12-19T04:41:43.484Z,88.88
2022-12-19T04:46:45.603Z,88.74
2022-12-19T04:51:47.712Z,88.59
2022-12-19T04:56:49.724Z,88.70
2022-12-19T05:01:51.878Z,88.74
2022-12-19T05:06:53.976Z,88.48
2022-12-19T05:11:55.984Z,88.43
2022-12-19T05:17:01.547Z,88.63
2022-12-19T05:22:04.198Z,88.67
2022-12-19T05:27:07.445Z,88.81
2022-12-19T05:32:09.501Z,88.61
2022-12-19T05:37:11.529Z,88.49
2022-12-19T05:42:13.871Z,88.35
2022-12-19T05:47:15.891Z,88.13
2022-12-19T05:52:17.995Z,88.20
2022-12-19T05:57:20.154Z,87.95
2022-12-19T06:02:22.813Z,87.90
2022-12-19T06:07:24.992Z,87.79
2022-12-19T06:12:27.081Z,87.71
2022-12-19T06:17:29.092Z,87.57
2022-12-19T06:22:31.516Z,87.76
2022-12-19T06:27:33.858Z,87.97
2022-12-19T06:32:38.048Z,87.98
2022-12-19T06:37:40.439Z,87.78
2022-12-19T06:42:42.460Z,87.59
2022-12-19T06:47:44.469Z,87.29
2022-12-19T06:52:46.542Z,86.95
2022-12-19T06:57:48.684Z,86.81
2022-12-19T07:02:52.290Z,86.72
2022-12-19T07:07:54.379Z,86.60
2022-12-19T07:12:56.864Z,86.62
2022-12-19T07:18:00.101Z,86.41
2022-12-19T07:23:04.086Z,86.17
2022-12-19T07:28:07.628Z,85.95
2022-12-19T07:33:11.543Z,85.71
2022-12-19T07:38:14.894Z,85.48
2022-12-19T07:43:17.015Z,84.73
2022-12-19T07:48:19.055Z,82.50
2022-12-19T07:53:21.163Z,80.79
2022-12-19T07:58:23.452Z,80.37
2022-12-19T08:03:25.920Z,78.65
2022-12-19T08:08:29.992Z,78.46
2022-12-19T08:13:37.968Z,76.95
2022-12-19T08:18:41.893Z,74.05
2022-12-19T08:23:45.953Z,73.13
2022-12-19T08:28:48.255Z,72.11
2022-12-19T08:33:51.369Z,70.58
2022-12-19T08:38:54.580Z,69.74
2022-12-19T08:43:56.675Z,70.12
2022-12-19T08:48:58.867Z,70.11
2022-12-19T08:54:02.018Z,69.63
2022-12-19T08:59:09.794Z,69.33
2022-12-19T09:06:00.193Z,67.80
2022-12-19T09:09:37.110Z,66.79
2022-12-19T09:14:39.258Z,65.58
2022-12-19T09:19:43.047Z,65.37
2022-12-19T09:24:50.040Z,65.20
2022-12-19T09:29:52.044Z,64.35
2022-12-19T09:34:54.142Z,63.80
2022-12-19T09:39:58.900Z,62.35
2022-12-19T09:45:31.252Z,62.27
2022-12-19T09:51:10.577Z,61.37
2022-12-19T09:56:15.871Z,55.33
2022-12-19T10:01:30.721Z,53.84
2022-12-19T10:07:14.005Z,54.03
2022-12-19T10:12:46.249Z,46.94
2022-12-19T10:18:18.529Z,45.52
2022-12-19T10:23:38.902Z,43.06
2022-12-19T10:28:56.140Z,44.34
2022-12-19T10:34:07.181Z,39.97
2022-12-19T10:39:33.303Z,38.80
2022-12-19T10:44:40.045Z,34.49
2022-12-19T10:49:42.343Z,31.87
2022-12-19T10:54:44.560Z,27.09
2022-12-19T11:00:00.391Z,25.54
2022-12-19T11:05:04.552Z,26.52
2022-12-19T11:15:49.500Z,28.85
2022-12-19T11:21:32.038Z,25.42
2022-12-19T11:29:30.008Z,28.27
2022-12-19T11:30:25.556Z,34.20
2022-12-19T11:33:18.185Z,35.53
2022-12-19T11:38:37.356Z,32.33
2022-12-19T11:44:11.846Z,27.30
2022-12-19T11:49:19.773Z,23.93
2022-12-19T11:54:27.151Z,27.89
2022-12-19T11:59:35.562Z,29.81
2022-12-19T12:05:45.691Z,30.32
2022-12-19T12:18:40.774Z,32.79
2022-12-19T12:26:41.311Z,29.61
2022-12-19T12:31:20.455Z,30.98
2022-12-19T12:31:42.622Z,36.86
2022-12-19T12:35:51.817Z,38.08
2022-12-19T12:39:14.534Z,35.52
2022-12-19T12:44:22.650Z,39.18
2022-12-19T12:49:55.520Z,41.94
2022-12-19T12:54:58.498Z,42.88
2022-12-19T13:00:17.676Z,40.38
2022-12-19T13:05:22.707Z,45.65
2022-12-19T13:10:28.414Z,48.45
2022-12-19T13:15:32.694Z,50.67
2022-12-19T13:20:48.135Z,52.62
2022-12-19T13:25:55.126Z,54.88
2022-12-19T13:31:19.722Z,56.43
2022-12-19T13:39:50.749Z,57.28
2022-12-19T13:42:40.778Z,57.37
2022-12-19T13:47:45.128Z,58.63
2022-12-19T13:52:51.182Z,59.58
2022-12-19T13:57:54.633Z,60.32
2022-12-19T14:02:59.337Z,61.07
2022-12-19T14:08:05.300Z,61.97
2022-12-19T14:13:49.216Z,62.72
2022-12-19T14:18:56.948Z,63.50
2022-12-19T14:24:17.863Z,64.56
2022-12-19T14:30:26.710Z,65.98
2022-12-19T14:36:05.320Z,66.59
2022-12-19T14:40:28.084Z,67.98
2022-12-19T14:54:03.375Z,68.47
2022-12-19T14:54:41.626Z,68.83
2022-12-19T14:57:02.296Z,69.95
2022-12-19T15:02:07.371Z,70.48
2022-12-19T15:07:31.824Z,71.06
2022-12-19T15:14:49.483Z,71.62
2022-12-19T15:18:37.268Z,71.78
2022-12-19T15:23:39.710Z,72.34
2022-12-19T15:28:46.241Z,72.70
2022-12-19T15:34:23.451Z,73.30
2022-12-19T15:39:10.290Z,74.25
2022-12-19T15:44:24.785Z,74.71
2022-12-19T15:49:26.840Z,74.80
2022-12-19T15:59:52.017Z,75.27
2022-12-19T16:04:59.937Z,75.84
2022-12-19T16:10:06.412Z,75.81
2022-12-19T16:15:24.878Z,75.58
2022-12-19T16:20:29.822Z,75.73
2022-12-19T16:25:45.888Z,75.42
2022-12-19T16:30:50.425Z,75.39
2022-12-19T16:36:04.113Z,75.61
2022-12-19T16:41:17.401Z,75.03
2022-12-19T16:46:23.494Z,74.62
2022-12-19T16:51:27.753Z,74.52
2022-12-19T16:56:36.431Z,74.20
2022-12-19T17:01:38.562Z,73.95
2022-12-19T17:06:41.181Z,73.94
2022-12-19T17:11:45.982Z,73.86
2022-12-19T17:16:48.393Z,73.62
2022-12-19T17:21:51.895Z,73.59
2022-12-19T17:26:53.962Z,73.66
2022-12-19T17:31:56.085Z,73.72
2022-12-19T17:37:00.503Z,73.91
2022-12-19T17:42:36.853Z,73.67
2022-12-19T17:47:39.610Z,73.58
2022-12-19T17:52:41.688Z,73.38
2022-12-19T17:57:43.802Z,73.37
2022-12-19T18:02:48.112Z,73.20
2022-12-19T18:07:50.739Z,73.26
2022-12-19T18:12:53.885Z,73.29
2022-12-19T18:17:57.303Z,73.15
2022-12-19T18:23:00.731Z,73.17
2022-12-19T18:28:02.797Z,73.10
2022-12-19T18:33:06.320Z,72.80
2022-12-19T18:38:12.863Z,73.08
2022-12-19T18:43:16.570Z,73.19
2022-12-19T18:48:36.940Z,73.24
2022-12-19T18:53:39.114Z,73.18
2022-12-19T18:58:41.436Z,73.31
2022-12-19T19:03:57.535Z,73.38
2022-12-19T19:09:00.291Z,73.36
2022-12-19T19:14:02.359Z,73.54
2022-12-19T19:19:07.241Z,73.48
2022-12-19T19:24:14.591Z,73.94
2022-12-19T19:29:18.986Z,73.81
2022-12-19T19:34:28.177Z,73.94
2022-12-19T19:39:33.103Z,74.21
2022-12-19T19:44:35.153Z,74.31
2022-12-19T19:49:37.255Z,74.67
2022-12-19T19:54:39.389Z,74.65
2022-12-19T19:59:41.537Z,74.53
2022-12-19T20:04:43.975Z,74.62
2022-12-19T20:09:46.363Z,74.92
2022-12-19T20:14:48.434Z,75.15
2022-12-19T20:19:51.441Z,75.57
2022-12-19T20:24:54.200Z,75.37
2022-12-19T20:29:56.804Z,75.87
2022-12-19T20:34:59.227Z,75.90
2022-12-19T20:40:01.336Z,75.77
2022-12-19T20:45:03.637Z,75.63
2022-12-19T20:50:07.593Z,75.85
2022-12-19T20:55:09.951Z,76.07
2022-12-19T21:00:14.770Z,75.99
2022-12-19T21:05:17.364Z,75.87
2022-12-19T21:10:20.509Z,75.98
2022-12-19T21:15:23.141Z,75.96
2022-12-19T21:20:29.515Z,76.21
2022-12-19T21:25:36.143Z,75.93
2022-12-19T21:30:38.223Z,75.79
2022-12-19T21:35:40.332Z,75.80
2022-12-19T21:40:42.362Z,75.65
2022-12-19T21:45:44.486Z,75.72
2022-12-19T21:50:55.554Z,75.80
2022-12-19T21:56:25.339Z,75.68
2022-12-19T22:01:28.131Z,75.86
2022-12-19T22:06:31.951Z,75.89
2022-12-19T22:11:35.820Z,76.08
2022-12-19T22:16:38.607Z,76.09
2022-12-19T22:21:40.702Z,76.04
2022-12-19T22:26:43.311Z,76.28
2022-12-19T22:31:46.101Z,76.43
2022-12-19T22:36:49.758Z,76.40
2022-12-19T22:41:51.904Z,76.75
2022-12-19T22:46:53.941Z,76.83
2022-12-19T22:51:56.017Z,76.77
2022-12-19T22:56:58.046Z,76.97
2022-12-19T23:02:00.329Z,77.38
2022-12-19T23:07:02.501Z,77.68
2022-12-19T23:12:04.697Z,77.89
2022-12-19T23:17:06.824Z,77.95
2022-12-19T23:22:09.025Z,78.08
2022-12-19T23:27:11.367Z,78.82
2022-12-19T23:32:13.439Z,79.06
2022-12-19T23:37:15.480Z,79.35
2022-12-19T23:42:17.578Z,79.55
2022-12-19T23:47:19.779Z,79.76
2022-12-19T23:52:22.356Z,80.31
2022-12-19T23:57:24.379Z,80.36
